createdAt,value
2023-03-06T00:00:45.048Z,2.40
2023-03-06T00:01:36.736Z,2.36
2023-03-06T00:02:28.290Z,2.39
2023-03-06T00:03:20.541Z,2.39
2023-03-06T00:04:12.959Z,2.28
2023-03-06T00:05:05.068Z,2.30
2023-03-06T00:05:59.329Z,2.30
2023-03-06T00:06:51.004Z,2.29
2023-03-06T00:07:43.969Z,2.34
2023-03-06T00:08:35.480Z,2.32
2023-03-06T00:09:27.179Z,2.30
2023-03-06T00:10:27.078Z,2.27
2023-03-06T00:11:18.728Z,2.27
2023-03-06T00:12:10.565Z,2.26
2023-03-06T00:13:06.133Z,2.25
2023-03-06T00:13:57.939Z,2.21
2023-03-06T00:14:49.759Z,2.22
2023-03-06T00:15:42.157Z,2.24
2023-03-06T00:16:33.622Z,2.24
2023-03-06T00:17:27.141Z,2.26
2023-03-06T00:18:18.602Z,2.27
2023-03-06T00:19:10.312Z,2.30
2023-03-06T00:20:02.008Z,2.28
2023-03-06T00:20:53.745Z,2.28
2023-03-06T00:21:46.260Z,2.27
2023-03-06T00:22:38.555Z,2.26
2023-03-06T00:23:30.305Z,2.26
2023-03-06T00:24:21.988Z,2.25
2023-03-06T00:25:16.804Z,2.26
2023-03-06T00:26:09.086Z,2.29
2023-03-06T00:27:02.159Z,2.31
2023-03-06T00:27:53.763Z,2.32
2023-03-06T00:28:45.226Z,2.36
2023-03-06T00:29:36.942Z,2.35
2023-03-06T00:30:28.402Z,2.35
2023-03-06T00:31:19.885Z,2.35
2023-03-06T00:32:11.408Z,2.35
2023-03-06T00:33:03.191Z,2.32
2023-03-06T00:33:55.278Z,2.31
2023-03-06T00:34:49.894Z,2.30
2023-03-06T00:35:41.938Z,2.30
2023-03-06T00:36:33.417Z,2.28
2023-03-06T00:37:25.357Z,2.26
2023-03-06T00:38:16.989Z,2.27
2023-03-06T00:39:08.765Z,2.28
2023-03-06T00:40:00.394Z,2.30
2023-03-06T00:40:51.852Z,2.31
2023-03-06T00:41:45.937Z,2.31
2023-03-06T00:42:38.420Z,2.27
2023-03-06T00:43:29.889Z,2.27
2023-03-06T00:44:21.636Z,2.26
2023-03-06T00:45:14.720Z,2.22
2023-03-06T00:46:07.298Z,2.18
2023-03-06T00:46:58.877Z,2.23
2023-03-06T00:47:50.434Z,2.24
2023-03-06T00:48:41.992Z,2.22
2023-03-06T00:49:33.703Z,2.18
2023-03-06T00:50:25.299Z,2.17
2023-03-06T00:51:19.804Z,2.19
2023-03-06T00:52:13.268Z,2.17
2023-03-06T00:53:05.167Z,2.18
2023-03-06T00:53:56.777Z,2.22
2023-03-06T00:54:49.483Z,2.18
2023-03-06T00:55:44.567Z,2.13
2023-03-06T00:56:36.463Z,2.12
2023-03-06T00:57:27.929Z,2.12
2023-03-06T00:58:19.840Z,2.14
2023-03-06T00:59:11.558Z,2.18
2023-03-06T01:00:04.713Z,2.18
2023-03-06T01:00:56.610Z,2.23
2023-03-06T01:01:48.478Z,2.20
2023-03-06T01:02:39.976Z,2.19
2023-03-06T01:03:31.567Z,2.23
2023-03-06T01:04:23.696Z,2.22
2023-03-06T01:05:15.402Z,2.24
2023-03-06T01:06:07.579Z,2.22
2023-03-06T01:07:00.120Z,2.21
2023-03-06T01:07:51.554Z,2.23
2023-03-06T01:08:43.974Z,2.24
2023-03-06T01:09:35.497Z,2.26
2023-03-06T01:10:27.541Z,2.28
2023-03-06T01:11:19.251Z,2.27
2023-03-06T01:12:10.943Z,2.24
2023-03-06T01:13:02.407Z,2.23
2023-03-06T01:13:55.876Z,2.27
2023-03-06T01:14:47.563Z,2.24
2023-03-06T01:15:39.112Z,2.28
2023-03-06T01:16:31.067Z,2.25
2023-03-06T01:17:22.843Z,2.24
2023-03-06T01:18:15.328Z,2.26
2023-03-06T01:19:07.147Z,2.27
2023-03-06T01:19:58.754Z,2.26
2023-03-06T01:20:50.449Z,2.30
2023-03-06T01:21:41.888Z,2.30
2023-03-06T01:22:33.721Z,2.30
2023-03-06T01:23:25.221Z,2.31
2023-03-06T01:24:16.949Z,2.32
2023-03-06T01:25:09.296Z,2.34
2023-03-06T01:26:01.178Z,2.34
2023-03-06T01:26:52.734Z,2.36
2023-03-06T01:27:45.122Z,2.37
2023-03-06T01:28:39.237Z,2.38
2023-03-06T01:29:31.049Z,2.35
2023-03-06T01:30:22.902Z,2.35
2023-03-06T01:31:14.857Z,2.37
2023-03-06T01:32:06.923Z,2.38
2023-03-06T01:32:59.183Z,2.39
2023-03-06T01:33:50.737Z,2.33
2023-03-06T01:34:42.353Z,2.34
2023-03-06T01:35:34.095Z,2.35
2023-03-06T01:36:25.724Z,2.40
2023-03-06T01:37:17.438Z,2.41
2023-03-06T01:38:09.339Z,2.42
2023-03-06T01:39:01.032Z,2.40
2023-03-06T01:39:52.552Z,2.31
2023-03-06T01:40:44.292Z,2.30
2023-03-06T01:41:36.682Z,2.24
2023-03-06T01:42:28.191Z,2.24
2023-03-06T01:43:28.870Z,2.17
2023-03-06T01:44:20.295Z,2.15
2023-03-06T01:45:14.838Z,2.15
2023-03-06T01:46:54.237Z,2.14
2023-03-06T01:47:45.778Z,2.14
2023-03-06T01:48:37.748Z,2.11
2023-03-06T01:49:38.318Z,2.11
2023-03-06T01:50:32.665Z,2.14
2023-03-06T01:51:32.269Z,2.20
2023-03-06T01:52:30.239Z,2.16
2023-03-06T01:53:22.375Z,2.23
2023-03-06T01:54:30.934Z,2.18
2023-03-06T01:55:33.262Z,2.17
2023-03-06T01:56:25.573Z,2.18
2023-03-06T01:57:43.995Z,2.21
2023-03-06T01:58:36.369Z,2.20
2023-03-06T01:59:30.267Z,2.22
2023-03-06T02:00:26.113Z,2.21
2023-03-06T02:01:19.098Z,2.18
2023-03-06T02:02:14.310Z,2.15
2023-03-06T02:03:13.029Z,2.15
2023-03-06T02:04:05.034Z,2.10
2023-03-06T02:04:59.607Z,2.12
2023-03-06T02:05:51.466Z,2.10
2023-03-06T02:06:43.597Z,2.10
2023-03-06T02:07:37.220Z,2.12
2023-03-06T02:08:30.386Z,2.08
2023-03-06T02:09:22.180Z,2.06
2023-03-06T02:10:17.512Z,2.10
2023-03-06T02:11:18.165Z,2.11
2023-03-06T02:12:14.509Z,2.12
2023-03-06T02:13:06.224Z,2.11
2023-03-06T02:13:58.181Z,2.12
2023-03-06T02:14:50.586Z,2.11
2023-03-06T02:15:42.142Z,2.08
2023-03-06T02:16:34.272Z,2.09
2023-03-06T02:17:28.130Z,2.11
2023-03-06T02:18:20.042Z,2.10
2023-03-06T02:19:34.880Z,2.09
2023-03-06T02:20:29.213Z,2.09
2023-03-06T02:21:31.169Z,2.07
2023-03-06T02:22:25.754Z,2.08
2023-03-06T02:23:40.000Z,2.05
2023-03-06T02:24:56.590Z,2.08
2023-03-06T02:25:52.384Z,2.14
2023-03-06T02:26:45.187Z,2.08
2023-03-06T02:27:36.994Z,2.03
2023-03-06T02:28:29.036Z,2.02
2023-03-06T02:29:28.778Z,2.03
2023-03-06T02:30:25.507Z,2.09
2023-03-06T02:31:24.698Z,2.07
2023-03-06T02:32:16.351Z,2.03
2023-03-06T02:33:08.011Z,2.08
2023-03-06T02:34:22.354Z,2.01
2023-03-06T02:35:27.335Z,1.94
2023-03-06T02:36:19.298Z,1.93
2023-03-06T02:37:11.286Z,1.98
2023-03-06T02:38:12.023Z,1.95
2023-03-06T02:39:04.626Z,1.90
2023-03-06T02:40:08.241Z,1.88
2023-03-06T02:41:03.742Z,1.89
2023-03-06T02:41:55.540Z,1.87
2023-03-06T02:42:56.699Z,1.87
2023-03-06T02:43:52.230Z,1.84
2023-03-06T02:44:44.365Z,1.81
2023-03-06T02:45:40.677Z,1.78
2023-03-06T02:46:32.390Z,1.77
2023-03-06T02:47:25.297Z,1.79
2023-03-06T02:48:18.610Z,1.79
2023-03-06T02:49:10.790Z,1.75
2023-03-06T02:50:02.524Z,1.76
2023-03-06T02:50:54.161Z,1.74
2023-03-06T02:51:45.695Z,1.73
2023-03-06T02:52:37.392Z,1.75
2023-03-06T02:53:28.966Z,1.74
2023-03-06T02:54:20.619Z,1.72
2023-03-06T02:55:12.241Z,1.69
2023-03-06T02:56:03.974Z,1.71
2023-03-06T02:56:55.727Z,1.71
2023-03-06T02:57:48.338Z,1.72
2023-03-06T02:58:40.219Z,1.72
2023-03-06T02:59:31.958Z,1.70
2023-03-06T03:00:24.368Z,1.74
2023-03-06T03:01:16.077Z,1.73
2023-03-06T03:02:08.353Z,1.74
2023-03-06T03:03:00.119Z,1.76
2023-03-06T03:03:51.833Z,1.76
2023-03-06T03:04:46.077Z,1.77
2023-03-06T03:05:37.739Z,1.78
2023-03-06T03:06:36.773Z,1.76
2023-03-06T03:07:28.506Z,1.78
2023-03-06T03:08:20.535Z,1.75
2023-03-06T03:09:14.792Z,1.79
2023-03-06T03:10:07.208Z,1.79
2023-03-06T03:10:59.300Z,1.78
2023-03-06T03:11:54.417Z,1.79
2023-03-06T03:12:46.290Z,1.79
2023-03-06T03:13:38.993Z,1.85
2023-03-06T03:14:35.536Z,1.90
2023-03-06T03:15:28.217Z,1.88
2023-03-06T03:16:19.850Z,1.88
2023-03-06T03:17:11.496Z,1.89
2023-03-06T03:18:03.513Z,1.89
2023-03-06T03:18:55.073Z,1.91
2023-03-06T03:19:47.828Z,1.89
2023-03-06T03:20:42.934Z,1.91
2023-03-06T03:21:34.595Z,1.91
2023-03-06T03:22:26.370Z,1.89
2023-03-06T03:23:18.013Z,1.90
2023-03-06T03:24:09.522Z,1.90
2023-03-06T03:25:01.486Z,1.89
2023-03-06T03:25:53.517Z,1.94
2023-03-06T03:26:46.008Z,1.93
2023-03-06T03:27:40.304Z,1.89
2023-03-06T03:28:32.291Z,1.91
2023-03-06T03:29:24.200Z,1.93
2023-03-06T03:30:16.346Z,1.92
2023-03-06T03:31:10.043Z,1.90
2023-03-06T03:32:02.170Z,1.90
2023-03-06T03:32:53.882Z,1.93
2023-03-06T03:33:45.602Z,1.95
2023-03-06T03:34:38.005Z,1.97
2023-03-06T03:35:30.719Z,1.97
2023-03-06T03:36:22.439Z,1.96
2023-03-06T03:37:14.152Z,1.98
2023-03-06T03:38:07.595Z,1.96
2023-03-06T03:38:59.161Z,1.98
2023-03-06T03:39:51.189Z,2.01
2023-03-06T03:40:42.755Z,2.02
2023-03-06T03:41:34.456Z,2.03
2023-03-06T03:42:29.081Z,2.01
2023-03-06T03:43:20.607Z,2.01
2023-03-06T03:44:12.671Z,1.99
2023-03-06T03:45:04.579Z,2.03
2023-03-06T03:45:56.095Z,2.03
2023-03-06T03:46:48.618Z,2.02
2023-03-06T03:47:45.132Z,2.00
2023-03-06T03:48:37.608Z,2.05
2023-03-06T03:49:30.522Z,2.01
2023-03-06T03:50:24.555Z,1.94
2023-03-06T03:51:16.539Z,1.93
2023-03-06T03:52:12.509Z,1.94
2023-03-06T03:53:04.993Z,1.92
2023-03-06T03:53:58.064Z,1.94
2023-03-06T03:54:52.295Z,1.90
2023-03-06T03:55:45.989Z,1.93
2023-03-06T03:56:39.914Z,1.92
2023-03-06T03:57:36.513Z,1.91
2023-03-06T03:58:28.107Z,1.88
2023-03-06T03:59:19.894Z,1.87
2023-03-06T04:00:25.070Z,1.91
2023-03-06T04:01:27.079Z,1.95
2023-03-06T04:02:21.549Z,1.97
2023-03-06T04:03:20.821Z,1.97
2023-03-06T04:04:12.750Z,2.00
2023-03-06T04:05:08.239Z,2.01
2023-03-06T04:06:00.248Z,2.02
2023-03-06T04:06:52.457Z,2.08
2023-03-06T04:07:45.039Z,2.00
2023-03-06T04:08:37.023Z,2.00
2023-03-06T04:09:30.039Z,2.01
2023-03-06T04:10:24.266Z,2.03
2023-03-06T04:11:16.854Z,2.05
2023-03-06T04:12:09.281Z,2.05
2023-03-06T04:13:02.285Z,2.06
2023-03-06T04:13:54.134Z,2.09
2023-03-06T04:14:45.765Z,2.09
2023-03-06T04:15:37.933Z,2.05
2023-03-06T04:16:29.522Z,2.06
2023-03-06T04:17:21.174Z,2.05
2023-03-06T04:18:13.183Z,2.09
2023-03-06T04:19:05.410Z,2.07
2023-03-06T04:19:57.115Z,2.07
2023-03-06T04:20:50.009Z,2.05
2023-03-06T04:21:43.422Z,2.06
2023-03-06T04:22:34.900Z,2.05
2023-03-06T04:23:27.803Z,2.06
2023-03-06T04:24:19.560Z,2.06
2023-03-06T04:25:12.387Z,2.06
2023-03-06T04:26:04.239Z,2.09
2023-03-06T04:26:55.804Z,2.10
2023-03-06T04:27:47.744Z,2.06
2023-03-06T04:28:39.470Z,2.04
2023-03-06T04:29:31.500Z,2.03
2023-03-06T04:30:24.620Z,2.04
2023-03-06T04:31:16.284Z,2.02
2023-03-06T04:32:09.676Z,2.04
2023-03-06T04:33:01.561Z,2.06
2023-03-06T04:33:53.360Z,2.08
2023-03-06T04:34:44.909Z,2.10
2023-03-06T04:35:37.351Z,2.11
2023-03-06T04:36:34.711Z,2.12
2023-03-06T04:37:33.156Z,2.15
2023-03-06T04:38:25.668Z,2.17
2023-03-06T04:39:17.552Z,2.19
2023-03-06T04:40:20.062Z,2.23
2023-03-06T04:41:11.881Z,2.17
2023-03-06T04:42:03.842Z,2.20
2023-03-06T04:42:59.345Z,2.21
2023-03-06T04:43:51.836Z,2.22
2023-03-06T04:44:44.022Z,2.22
2023-03-06T04:45:35.762Z,2.24
2023-03-06T04:46:27.221Z,2.26
2023-03-06T04:47:19.263Z,2.26
2023-03-06T04:48:15.354Z,2.26
2023-03-06T04:49:07.074Z,2.27
2023-03-06T04:49:58.482Z,2.24
2023-03-06T04:50:50.014Z,2.28
2023-03-06T04:51:41.460Z,2.30
2023-03-06T04:52:33.025Z,2.31
2023-03-06T04:53:24.513Z,2.32
2023-03-06T04:54:17.942Z,2.34
2023-03-06T04:55:14.483Z,2.35
2023-03-06T04:56:06.601Z,2.34
2023-03-06T04:56:58.478Z,2.30
2023-03-06T04:57:49.952Z,2.25
2023-03-06T04:58:43.441Z,2.23
2023-03-06T04:59:36.023Z,2.21
2023-03-06T05:00:31.308Z,2.20
2023-03-06T05:01:23.063Z,2.21
2023-03-06T05:02:14.605Z,2.18
2023-03-06T05:03:06.037Z,2.20
2023-03-06T05:03:57.761Z,2.23
2023-03-06T05:04:49.219Z,2.24
2023-03-06T05:05:41.484Z,2.26
2023-03-06T05:06:33.160Z,2.23
2023-03-06T05:07:24.693Z,2.24
2023-03-06T05:08:18.330Z,2.23
2023-03-06T05:09:10.158Z,2.25
2023-03-06T05:10:01.649Z,2.27
2023-03-06T05:10:59.114Z,2.31
2023-03-06T05:11:51.290Z,2.30
2023-03-06T05:12:44.190Z,2.29
2023-03-06T05:13:35.693Z,2.27
2023-03-06T05:14:30.550Z,2.28
2023-03-06T05:15:22.229Z,2.29
2023-03-06T05:16:14.049Z,2.29
2023-03-06T05:17:05.898Z,2.29
2023-03-06T05:17:57.547Z,2.27
2023-03-06T05:18:50.693Z,2.25
2023-03-06T05:19:42.377Z,2.28
2023-03-06T05:20:33.960Z,2.31
2023-03-06T05:21:25.493Z,2.32
2023-03-06T05:22:17.258Z,2.31
2023-03-06T05:23:08.946Z,2.29
2023-03-06T05:24:00.561Z,2.26
2023-03-06T05:24:52.564Z,2.25
2023-03-06T05:25:44.034Z,2.28
2023-03-06T05:26:35.561Z,2.24
2023-03-06T05:27:28.020Z,2.22
2023-03-06T05:28:19.578Z,2.22
2023-03-06T05:29:11.561Z,2.20
2023-03-06T05:30:03.921Z,2.18
2023-03-06T05:30:55.370Z,2.20
2023-03-06T05:31:47.274Z,2.18
2023-03-06T05:32:39.108Z,2.18
2023-03-06T05:33:36.100Z,2.23
2023-03-06T05:34:27.524Z,2.22
2023-03-06T05:35:22.404Z,2.23
2023-03-06T05:36:13.965Z,2.20
2023-03-06T05:37:05.819Z,2.15
2023-03-06T05:37:58.554Z,2.16
2023-03-06T05:38:50.536Z,2.18
2023-03-06T05:39:42.514Z,2.17
2023-03-06T05:40:33.924Z,2.18
2023-03-06T05:41:25.400Z,2.25
2023-03-06T05:42:16.964Z,2.24
2023-03-06T05:43:08.955Z,2.18
2023-03-06T05:44:00.437Z,2.18
2023-03-06T05:44:51.992Z,2.16
2023-03-06T05:45:44.426Z,2.21
2023-03-06T05:46:36.170Z,2.16
2023-03-06T05:47:27.701Z,2.17
2023-03-06T05:48:19.441Z,2.20
2023-03-06T05:49:11.051Z,2.19
2023-03-06T05:50:04.908Z,2.19
2023-03-06T05:50:57.721Z,2.21
2023-03-06T05:51:49.194Z,2.26
2023-03-06T05:52:41.207Z,2.23
2023-03-06T05:53:32.995Z,2.23
2023-03-06T05:54:26.362Z,2.22
2023-03-06T05:55:19.746Z,2.27
2023-03-06T05:56:11.184Z,2.21
2023-03-06T05:57:04.969Z,2.23
2023-03-06T05:57:56.388Z,2.22
2023-03-06T05:58:48.826Z,2.23
2023-03-06T05:59:40.271Z,2.17
2023-03-06T06:00:31.747Z,2.16
2023-03-06T06:01:25.261Z,2.17
2023-03-06T06:02:18.107Z,2.17
2023-03-06T06:03:09.645Z,2.17
2023-03-06T06:04:01.089Z,2.17
2023-03-06T06:04:52.636Z,2.20
2023-03-06T06:05:44.445Z,2.24
2023-03-06T06:06:36.140Z,2.23
2023-03-06T06:07:27.766Z,2.26
2023-03-06T06:08:20.481Z,2.28
2023-03-06T06:09:13.906Z,2.29
2023-03-06T06:10:07.537Z,2.29
2023-03-06T06:10:59.147Z,2.28
2023-03-06T06:11:52.976Z,2.29
2023-03-06T06:12:44.445Z,2.21
2023-03-06T06:13:37.160Z,2.20
2023-03-06T06:14:30.060Z,2.20
2023-03-06T06:15:21.617Z,2.25
2023-03-06T06:16:16.651Z,2.23
2023-03-06T06:17:08.235Z,2.25
2023-03-06T06:17:59.729Z,2.23
2023-03-06T06:18:51.487Z,2.17
2023-03-06T06:19:43.268Z,2.26
2023-03-06T06:20:37.232Z,2.20
2023-03-06T06:21:28.656Z,2.18
2023-03-06T06:22:20.104Z,2.17
2023-03-06T06:23:11.959Z,2.19
2023-03-06T06:24:03.977Z,2.14
2023-03-06T06:24:55.676Z,2.11
2023-03-06T06:25:47.420Z,2.07
2023-03-06T06:26:39.388Z,2.10
2023-03-06T06:27:30.828Z,2.15
2023-03-06T06:28:22.232Z,2.13
2023-03-06T06:29:13.986Z,2.12
2023-03-06T06:30:07.721Z,2.15
2023-03-06T06:30:59.466Z,2.13
2023-03-06T06:31:53.061Z,2.12
2023-03-06T06:32:44.582Z,2.17
2023-03-06T06:33:36.376Z,2.17
2023-03-06T06:34:28.729Z,2.17
2023-03-06T06:35:20.315Z,2.17
2023-03-06T06:36:20.312Z,2.16
2023-03-06T06:37:11.907Z,2.15
2023-03-06T06:38:03.402Z,2.18
2023-03-06T06:38:54.832Z,2.17
2023-03-06T06:39:46.289Z,2.18
2023-03-06T06:40:37.994Z,2.16
2023-03-06T06:41:53.512Z,2.14
2023-03-06T06:42:41.826Z,2.14
2023-03-06T06:43:33.267Z,2.14
2023-03-06T06:44:24.942Z,2.18
2023-03-06T06:45:16.486Z,2.16
2023-03-06T06:46:38.863Z,2.17
2023-03-06T06:47:24.833Z,2.16
2023-03-06T06:48:17.813Z,2.18
2023-03-06T06:49:09.662Z,2.20
2023-03-06T06:50:01.170Z,2.20
2023-03-06T06:50:59.848Z,2.21
2023-03-06T06:51:51.502Z,2.21
2023-03-06T06:52:43.043Z,2.19
2023-03-06T06:53:34.692Z,2.27
2023-03-06T06:54:26.947Z,2.26
2023-03-06T06:55:18.561Z,2.22
2023-03-06T06:56:10.560Z,2.21
2023-03-06T06:57:02.304Z,2.19
2023-03-06T06:57:53.765Z,2.15
2023-03-06T06:58:45.280Z,2.12
2023-03-06T06:59:36.810Z,2.15
2023-03-06T07:00:28.507Z,2.13
2023-03-06T07:01:21.029Z,2.14
2023-03-06T07:02:14.135Z,2.17
2023-03-06T07:03:05.900Z,2.19
2023-03-06T07:03:57.504Z,2.23
2023-03-06T07:05:02.471Z,2.24
2023-03-06T07:05:55.819Z,2.20
2023-03-06T07:06:47.276Z,2.21
2023-03-06T07:07:39.145Z,2.20
2023-03-06T07:08:30.767Z,2.20
2023-03-06T07:09:22.288Z,2.22
2023-03-06T07:10:15.913Z,2.24
2023-03-06T07:11:14.782Z,2.21
2023-03-06T07:12:08.187Z,2.27
2023-03-06T07:13:00.037Z,2.23
2023-03-06T07:13:51.571Z,2.26
2023-03-06T07:14:43.314Z,2.27
2023-03-06T07:15:35.027Z,2.31
2023-03-06T07:16:26.757Z,2.37
2023-03-06T07:17:18.242Z,2.39
2023-03-06T07:18:10.042Z,2.41
2023-03-06T07:19:01.769Z,2.44
2023-03-06T07:19:53.283Z,2.49
2023-03-06T07:20:44.944Z,2.45
2023-03-06T07:21:36.585Z,2.43
2023-03-06T07:22:30.326Z,2.43
2023-03-06T07:23:24.799Z,2.40
2023-03-06T07:24:16.540Z,2.45
2023-03-06T07:25:08.563Z,2.45
2023-03-06T07:26:00.199Z,2.46
2023-03-06T07:26:52.472Z,2.46
2023-03-06T07:27:46.998Z,2.48
2023-03-06T07:28:52.326Z,2.49
2023-03-06T07:29:44.321Z,2.49
2023-03-06T07:30:35.991Z,2.51
2023-03-06T07:31:28.412Z,2.58
2023-03-06T07:32:20.903Z,2.59
2023-03-06T07:33:13.406Z,2.64
2023-03-06T07:34:05.180Z,2.63
2023-03-06T07:35:17.196Z,2.65
2023-03-06T07:36:12.782Z,2.65
2023-03-06T07:37:05.077Z,2.59
2023-03-06T07:37:56.541Z,2.59
2023-03-06T07:38:48.276Z,2.65
2023-03-06T07:39:39.813Z,2.64
2023-03-06T07:40:31.223Z,2.58
2023-03-06T07:41:22.865Z,2.63
2023-03-06T07:42:15.082Z,2.58
2023-03-06T07:43:19.452Z,2.59
2023-03-06T07:44:21.192Z,2.61
2023-03-06T07:45:14.334Z,2.64
2023-03-06T07:46:06.308Z,2.66
2023-03-06T07:46:57.807Z,2.67
2023-03-06T07:47:50.898Z,2.63
2023-03-06T07:48:42.880Z,2.65
2023-03-06T07:49:35.351Z,2.69
2023-03-06T07:50:27.019Z,2.73
2023-03-06T07:51:21.364Z,2.75
2023-03-06T07:52:12.809Z,2.75
2023-03-06T07:53:04.489Z,2.73
2023-03-06T07:53:55.906Z,2.72
2023-03-06T07:54:48.069Z,2.70
2023-03-06T07:55:41.200Z,2.70
2023-03-06T07:56:34.842Z,2.71
2023-03-06T07:57:26.761Z,2.76
2023-03-06T07:58:18.359Z,2.73
2023-03-06T07:59:11.560Z,2.71
2023-03-06T08:00:09.328Z,2.75
2023-03-06T08:01:10.995Z,2.78
2023-03-06T08:02:02.530Z,2.79
2023-03-06T08:02:54.081Z,2.78
2023-03-06T08:03:46.352Z,2.79
2023-03-06T08:04:38.164Z,2.91
2023-03-06T08:05:29.657Z,2.89
2023-03-06T08:06:24.284Z,2.90
2023-03-06T08:07:15.733Z,2.95
2023-03-06T08:08:07.346Z,2.95
2023-03-06T08:08:59.694Z,3.00
2023-03-06T08:09:51.199Z,3.00
2023-03-06T08:10:48.050Z,3.06
2023-03-06T08:11:39.572Z,3.06
2023-03-06T08:12:31.399Z,3.07
2023-03-06T08:13:22.779Z,3.07
2023-03-06T08:14:14.316Z,3.04
2023-03-06T08:15:06.777Z,3.11
2023-03-06T08:15:59.703Z,3.12
2023-03-06T08:16:52.018Z,3.11
2023-03-06T08:17:43.468Z,3.01
2023-03-06T08:18:36.032Z,2.94
2023-03-06T08:19:27.616Z,2.96
2023-03-06T08:20:19.237Z,2.94
2023-03-06T08:21:14.359Z,2.95
2023-03-06T08:22:06.890Z,3.02
2023-03-06T08:22:58.551Z,3.00
2023-03-06T08:23:50.716Z,2.96
2023-03-06T08:24:42.772Z,2.90
2023-03-06T08:25:34.194Z,2.94
2023-03-06T08:26:32.494Z,2.91
2023-03-06T08:27:24.341Z,2.92
2023-03-06T08:28:15.781Z,2.96
2023-03-06T08:29:08.048Z,2.96
2023-03-06T08:29:59.842Z,3.00
2023-03-06T08:30:51.345Z,3.04
2023-03-06T08:31:45.576Z,3.15
2023-03-06T08:32:37.595Z,3.22
2023-03-06T08:33:29.050Z,3.23
2023-03-06T08:34:24.450Z,3.36
2023-03-06T08:35:16.152Z,3.38
2023-03-06T08:36:07.796Z,3.42
2023-03-06T08:36:59.240Z,3.43
2023-03-06T08:37:50.809Z,3.45
2023-03-06T08:38:42.294Z,3.43
2023-03-06T08:39:33.805Z,3.32
2023-03-06T08:40:26.995Z,3.25
2023-03-06T08:41:20.415Z,3.23
2023-03-06T08:42:12.219Z,3.23
2023-03-06T08:43:04.009Z,3.28
2023-03-06T08:43:55.601Z,3.23
2023-03-06T08:44:47.170Z,3.25
2023-03-06T08:45:39.820Z,3.24
2023-03-06T08:46:32.789Z,3.23
2023-03-06T08:47:24.304Z,3.22
2023-03-06T08:48:15.779Z,3.23
2023-03-06T08:49:07.229Z,3.23
2023-03-06T08:50:00.195Z,3.23
2023-03-06T08:50:53.199Z,3.23
2023-03-06T08:51:44.681Z,3.26
2023-03-06T08:52:36.160Z,3.32
2023-03-06T08:53:41.636Z,3.37
2023-03-06T08:54:37.038Z,3.42
2023-03-06T08:55:28.765Z,3.45
2023-03-06T08:56:23.339Z,3.49
2023-03-06T08:57:14.993Z,3.48
2023-03-06T08:58:06.441Z,3.49
2023-03-06T08:59:00.117Z,3.48
2023-03-06T08:59:51.817Z,3.52
2023-03-06T09:00:43.470Z,3.47
2023-03-06T09:01:37.675Z,3.52
2023-03-06T09:02:29.450Z,3.54
2023-03-06T09:03:23.119Z,3.52
2023-03-06T09:04:14.800Z,3.41
2023-03-06T09:05:08.377Z,3.46
2023-03-06T09:06:00.151Z,3.46
2023-03-06T09:06:52.438Z,3.46
2023-03-06T09:07:44.915Z,3.41
2023-03-06T09:08:36.349Z,3.41
2023-03-06T09:09:27.857Z,3.39
2023-03-06T09:10:24.477Z,3.40
2023-03-06T09:11:16.007Z,3.42
2023-03-06T09:12:07.540Z,3.40
2023-03-06T09:12:59.190Z,3.42
2023-03-06T09:13:51.669Z,3.43
2023-03-06T09:14:43.184Z,3.42
2023-03-06T09:15:34.742Z,3.45
2023-03-06T09:16:26.596Z,3.42
2023-03-06T09:17:18.315Z,3.44
2023-03-06T09:18:09.772Z,3.46
2023-03-06T09:19:01.367Z,3.40
2023-03-06T09:19:52.905Z,3.33
2023-03-06T09:20:44.622Z,3.36
2023-03-06T09:21:36.107Z,3.37
2023-03-06T09:22:27.578Z,3.38
2023-03-06T09:23:19.071Z,3.46
2023-03-06T09:24:10.967Z,3.52
2023-03-06T09:25:04.448Z,3.49
2023-03-06T09:25:58.657Z,3.57
2023-03-06T09:26:51.742Z,3.65
2023-03-06T09:27:43.244Z,3.71
2023-03-06T09:28:39.947Z,3.83
2023-03-06T09:29:31.477Z,3.92
2023-03-06T09:30:23.302Z,4.09
2023-03-06T09:31:19.935Z,4.19
2023-03-06T09:32:12.246Z,4.21
2023-03-06T09:33:03.939Z,4.23
2023-03-06T09:33:55.363Z,4.22
2023-03-06T09:34:46.866Z,4.22
2023-03-06T09:35:54.588Z,4.28
2023-03-06T09:36:56.825Z,4.18
2023-03-06T09:37:49.078Z,4.20
2023-03-06T09:38:40.840Z,4.22
2023-03-06T09:39:32.666Z,4.19
2023-03-06T09:40:52.882Z,4.16
2023-03-06T09:41:49.410Z,4.15
2023-03-06T09:42:40.915Z,4.13
2023-03-06T09:43:40.270Z,4.01
2023-03-06T09:44:38.496Z,3.94
2023-03-06T09:45:36.943Z,3.94
2023-03-06T09:46:45.864Z,3.88
2023-03-06T09:47:55.884Z,3.85
2023-03-06T09:48:50.109Z,3.78
2023-03-06T09:50:01.774Z,3.63
2023-03-06T09:51:05.675Z,3.71
2023-03-06T09:52:18.412Z,3.69
2023-03-06T09:53:38.655Z,3.67
2023-03-06T09:54:55.581Z,3.69
2023-03-06T09:55:58.331Z,3.69
2023-03-06T09:56:51.019Z,3.69
2023-03-06T09:57:51.269Z,3.69
2023-03-06T09:59:08.627Z,3.82
2023-03-06T10:00:07.336Z,3.85
2023-03-06T10:01:04.749Z,3.89
2023-03-06T10:02:15.840Z,3.98
2023-03-06T10:03:39.252Z,4.07
2023-03-06T10:04:50.242Z,4.02
2023-03-06T10:05:57.983Z,4.06
2023-03-06T10:06:55.631Z,4.11
2023-03-06T10:07:58.182Z,4.14
2023-03-06T10:09:02.356Z,4.18
2023-03-06T10:09:59.775Z,4.21
2023-03-06T10:11:02.214Z,4.23
2023-03-06T10:12:06.568Z,4.34
2023-03-06T10:13:24.070Z,4.19
2023-03-06T10:14:21.130Z,4.38
2023-03-06T10:15:26.693Z,4.52
2023-03-06T10:16:26.761Z,4.39
2023-03-06T10:17:22.143Z,4.52
2023-03-06T10:18:14.116Z,4.63
2023-03-06T10:19:13.770Z,4.70
2023-03-06T10:20:20.758Z,4.75
2023-03-06T10:21:44.526Z,4.82
2023-03-06T10:23:00.840Z,4.77
2023-03-06T10:23:59.797Z,4.65
2023-03-06T10:25:12.596Z,4.68
2023-03-06T10:26:19.093Z,4.67
2023-03-06T10:27:26.472Z,4.65
2023-03-06T10:28:30.189Z,4.68
2023-03-06T10:29:39.302Z,4.60
2023-03-06T10:30:48.158Z,4.63
2023-03-06T10:31:49.271Z,4.50
2023-03-06T10:32:48.912Z,4.30
2023-03-06T10:34:17.326Z,4.32
2023-03-06T10:35:19.027Z,4.31
2023-03-06T10:36:15.794Z,4.41
2023-03-06T10:37:19.543Z,4.41
2023-03-06T10:38:19.927Z,4.46
2023-03-06T10:39:21.043Z,4.33
2023-03-06T10:40:28.697Z,4.35
2023-03-06T10:41:27.555Z,4.40
2023-03-06T10:42:19.091Z,4.44
2023-03-06T10:43:12.423Z,4.45
2023-03-06T10:44:03.931Z,4.50
2023-03-06T10:45:12.473Z,4.44
2023-03-06T10:46:06.532Z,4.41
2023-03-06T10:46:58.022Z,4.28
2023-03-06T10:47:50.312Z,4.23
2023-03-06T10:48:42.724Z,4.18
2023-03-06T10:49:37.799Z,4.13
2023-03-06T10:50:30.653Z,4.10
2023-03-06T10:51:25.429Z,4.10
2023-03-06T10:52:16.881Z,4.14
2023-03-06T10:53:24.006Z,4.06
2023-03-06T10:54:19.190Z,4.01
2023-03-06T10:55:27.837Z,3.96
2023-03-06T10:56:34.582Z,4.00
2023-03-06T10:57:31.130Z,4.02
2023-03-06T10:58:32.156Z,4.03
2023-03-06T10:59:28.242Z,3.90
2023-03-06T11:00:28.229Z,3.82
2023-03-06T11:01:22.004Z,3.81
2023-03-06T11:02:32.783Z,3.76
2023-03-06T11:03:24.983Z,3.78
2023-03-06T11:04:36.796Z,3.78
2023-03-06T11:05:28.567Z,3.85
2023-03-06T11:06:35.541Z,3.83
2023-03-06T11:07:30.442Z,3.88
2023-03-06T11:08:23.612Z,3.89
2023-03-06T11:09:24.524Z,3.90
2023-03-06T11:10:19.503Z,3.84
2023-03-06T11:11:36.840Z,3.83
2023-03-06T11:12:37.812Z,3.82
2023-03-06T11:13:33.044Z,3.80
2023-03-06T11:14:27.191Z,3.74
2023-03-06T11:15:22.741Z,3.76
2023-03-06T11:16:30.344Z,3.72
2023-03-06T11:17:29.719Z,3.70
2023-03-06T11:18:31.053Z,3.68
2023-03-06T11:19:27.257Z,3.66
2023-03-06T11:20:25.263Z,3.64
2023-03-06T11:21:31.414Z,3.65
2023-03-06T11:22:23.331Z,3.67
2023-03-06T11:23:18.904Z,3.68
2023-03-06T11:24:20.126Z,3.71
2023-03-06T11:25:16.198Z,3.75
2023-03-06T11:26:16.739Z,3.72
2023-03-06T11:27:36.574Z,3.74
2023-03-06T11:28:41.725Z,3.78
2023-03-06T11:29:46.686Z,3.77
2023-03-06T11:30:48.121Z,3.69
2023-03-06T11:32:04.283Z,3.57
2023-03-06T11:33:03.273Z,3.48
2023-03-06T11:34:00.958Z,3.47
2023-03-06T11:34:58.389Z,3.49
2023-03-06T11:36:13.812Z,3.53
2023-03-06T11:37:45.650Z,3.54
2023-03-06T11:38:51.628Z,3.62
2023-03-06T11:40:04.667Z,3.69
2023-03-06T11:41:01.285Z,3.73
2023-03-06T11:42:03.556Z,3.71
2023-03-06T11:43:17.032Z,3.74
2023-03-06T11:44:38.198Z,3.67
2023-03-06T11:45:44.960Z,3.64
2023-03-06T11:46:48.594Z,3.62
2023-03-06T11:47:46.252Z,3.69
2023-03-06T11:48:54.347Z,3.78
2023-03-06T11:49:53.973Z,3.81
2023-03-06T11:51:11.550Z,3.92
2023-03-06T11:52:15.719Z,3.91
2023-03-06T11:53:29.947Z,3.97
2023-03-06T11:54:23.215Z,3.98
2023-03-06T11:55:24.263Z,4.00
2023-03-06T11:56:19.051Z,3.96
2023-03-06T11:57:23.520Z,3.99
2023-03-06T11:58:37.002Z,4.07
2023-03-06T12:00:03.612Z,4.09
2023-03-06T12:01:20.800Z,4.09
2023-03-06T12:02:39.189Z,4.10
2023-03-06T12:03:52.635Z,4.16
2023-03-06T12:05:12.122Z,4.14
2023-03-06T12:06:28.156Z,4.08
2023-03-06T12:07:31.520Z,4.08
2023-03-06T12:08:46.910Z,4.09
2023-03-06T12:11:10.056Z,4.17
2023-03-06T12:12:57.815Z,4.14
2023-03-06T12:14:03.997Z,4.16
2023-03-06T12:15:19.135Z,4.06
2023-03-06T12:16:33.662Z,4.08